Time;durP1;ratioP1;P1;durP2;ratioP2;P2;SDS_P1;SDS_P2;PMS_P1;PMS_P2;Temp;Humidity;BMP_temperature;BMP_pressure;BME280_temperature;BME280_humidity;BME280_pressure;Samples;Min_cycle;Max_cycle;Signal;HPM_P1;HPM_P2
2021/07/03 00:01:30;;;;;;;7.75;4.37;;;;;;;19.75;86.00;99720.81;1740507;82;21836;-62
2021/07/03 00:04:37;;;;;;;8.95;3.87;;;;;;;19.77;85.90;99720.02;1740275;82;21370;-61
2021/07/03 00:07:56;;;;;;;5.37;3.70;;;;;;;19.89;86.32;99726.32;1850812;76;22269;-61
2021/07/03 00:11:04;;;;;;;7.03;4.10;;;;;;;19.88;86.43;99730.20;1773905;80;21816;-61
2021/07/03 00:14:10;;;;;;;9.03;4.17;;;;;;;19.92;86.49;99739.70;1772672;79;21336;-61
2021/07/03 00:17:16;;;;;;;8.60;4.75;;;;;;;19.94;86.52;99750.03;1771446;80;21212;-62
2021/07/03 00:20:21;;;;;;;7.42;4.22;;;;;;;19.96;86.58;99740.91;1762590;81;21224;-61
2021/07/03 00:23:27;;;;;;;7.40;3.83;;;;;;;19.97;86.50;99746.75;1762967;80;21221;-60
2021/07/03 00:26:32;;;;;;;7.33;4.40;;;;;;;19.97;86.43;99741.19;1772670;80;21336;-61
2021/07/03 00:29:37;;;;;;;9.03;4.58;;;;;;;19.95;86.27;99735.03;1771253;79;21763;-61
2021/07/03 00:32:42;;;;;;;9.75;4.50;;;;;;;19.88;86.20;99738.00;1772497;79;21353;-62
2021/07/03 00:35:48;;;;;;;11.05;4.85;;;;;;;19.89;86.56;99736.05;1773300;81;21244;-61
2021/07/03 00:38:55;;;;;;;6.03;4.35;;;;;;;19.92;86.69;99729.98;1772475;79;21391;-62
2021/07/03 00:42:01;;;;;;;13.43;5.50;;;;;;;19.94;86.78;99731.44;1772942;80;21205;-61
2021/07/03 00:45:05;;;;;;;9.28;4.45;;;;;;;19.95;86.75;99740.05;1772458;80;21384;-62
2021/07/03 00:48:11;;;;;;;13.85;4.40;;;;;;;19.95;86.78;99745.61;1772464;79;21413;-61
2021/07/03 00:51:19;;;;;;;10.90;5.10;;;;;;;19.94;86.67;99747.25;1771864;81;21205;-62
2021/07/03 00:54:28;;;;;;;8.93;4.97;;;;;;;19.91;86.48;99758.88;1772630;79;21213;-61
2021/07/03 00:57:35;;;;;;;10.08;4.30;;;;;;;19.86;86.38;99763.80;1773018;79;21854;-61
2021/07/03 01:00:43;;;;;;;7.00;4.17;;;;;;;19.83;86.46;99756.50;1740272;82;21296;-62
2021/07/03 01:03:52;;;;;;;6.58;4.03;;;;;;;19.79;86.36;99751.98;1741459;81;21367;-62
2021/07/03 01:06:58;;;;;;;12.25;4.58;;;;;;;19.73;86.61;99743.28;1741574;81;21276;-62
2021/07/03 01:10:04;;;;;;;7.92;4.85;;;;;;;19.70;87.06;99743.78;1741378;82;21185;-63
2021/07/03 01:13:09;;;;;;;17.80;5.10;;;;;;;19.73;87.20;99740.50;1743208;81;21383;-62
2021/07/03 01:16:17;;;;;;;9.63;4.65;;;;;;;19.76;87.24;99723.87;1773071;80;21253;-62
2021/07/03 01:19:25;;;;;;;7.92;4.37;;;;;;;19.77;87.30;99721.41;1768600;80;21260;-63
2021/07/03 01:22:30;;;;;;;9.73;4.53;;;;;;;19.78;87.33;99728.63;1770189;80;21323;-61
2021/07/03 01:25:36;;;;;;;8.95;4.78;;;;;;;19.77;87.29;99714.46;1773671;80;21847;-62
2021/07/03 01:28:41;;;;;;;11.25;4.47;;;;;;;19.76;87.20;99712.22;1770087;80;21210;-61
2021/07/03 01:31:48;;;;;;;7.97;5.00;;;;;;;19.75;87.27;99708.30;1769719;80;21439;-62
2021/07/03 01:34:56;;;;;;;11.90;4.62;;;;;;;19.69;87.03;99703.77;1768741;80;21186;-62
2021/07/03 01:38:01;;;;;;;9.30;5.10;;;;;;;19.61;86.90;99702.25;1768873;80;21201;-62
2021/07/03 01:41:06;;;;;;;8.98;5.10;;;;;;;19.55;87.18;99708.78;1769506;80;21351;-62
2021/07/03 01:44:14;;;;;;;14.43;5.65;;;;;;;19.52;87.25;99714.02;1768669;80;21264;-62
2021/07/03 01:47:19;;;;;;;17.15;5.30;;;;;;;19.41;87.42;99710.76;1769131;80;21205;-62
2021/07/03 01:50:25;;;;;;;11.03;5.53;;;;;;;19.39;87.75;99710.16;1769508;80;21229;-62
2021/07/03 01:53:33;;;;;;;14.78;6.80;;;;;;;19.36;87.90;99717.59;1768765;80;21276;-62
2021/07/03 01:56:39;;;;;;;13.95;5.97;;;;;;;19.33;88.03;99718.09;1769739;80;21323;-63
2021/07/03 01:59:44;;;;;;;11.55;6.10;;;;;;;19.30;88.19;99706.92;1771251;80;21252;-61
2021/07/03 02:02:51;;;;;;;15.65;6.08;;;;;;;19.33;88.44;99709.77;1769196;80;21674;-61
2021/07/03 02:05:59;;;;;;;12.00;5.90;;;;;;;19.34;88.53;99715.07;1769225;81;21701;-63
2021/07/03 02:09:04;;;;;;;12.47;5.50;;;;;;;19.36;88.48;99720.38;1754214;80;21709;-62
2021/07/03 02:12:12;;;;;;;17.20;5.78;;;;;;;19.37;88.39;99714.57;1755961;81;21233;-61
2021/07/03 02:15:19;;;;;;;9.98;5.65;;;;;;;19.41;88.26;99719.09;1755588;81;21327;-61
2021/07/03 02:18:27;;;;;;;8.28;5.42;;;;;;;19.43;88.11;99714.95;1769961;80;21210;-61
2021/07/03 02:21:35;;;;;;;13.10;5.10;;;;;;;19.46;87.95;99719.15;1768634;81;21332;-61
2021/07/03 02:24:43;;;;;;;11.63;5.08;;;;;;;19.47;87.70;99721.71;1769371;80;21201;-60
2021/07/03 02:27:49;;;;;;;9.70;4.83;;;;;;;19.49;87.52;99725.63;1761638;80;21536;-61
2021/07/03 02:30:56;;;;;;;11.40;4.78;;;;;;;19.49;87.27;99727.02;1766512;81;21276;-61
2021/07/03 02:34:02;;;;;;;9.55;5.35;;;;;;;19.44;87.17;99732.46;1770593;80;21346;-61
2021/07/03 02:37:08;;;;;;;8.35;4.80;;;;;;;19.39;87.22;99730.97;1769393;80;21304;-62
2021/07/03 02:40:16;;;;;;;9.48;5.00;;;;;;;19.38;87.41;99739.02;1770543;80;21595;-62
2021/07/03 02:43:21;;;;;;;10.15;5.65;;;;;;;19.42;87.56;99738.27;1768569;80;21268;-62
2021/07/03 02:46:29;;;;;;;15.53;5.95;;;;;;;19.43;87.63;99748.27;1768647;81;21236;-63
2021/07/03 02:49:34;;;;;;;10.65;4.97;;;;;;;19.44;88.03;99749.94;1770011;80;21391;-62
2021/07/03 02:52:40;;;;;;;9.55;5.50;;;;;;;19.48;88.36;99752.53;1770335;80;21782;-62
2021/07/03 02:55:48;;;;;;;9.50;4.92;;;;;;;19.58;88.63;99754.66;1769285;80;21911;-62
2021/07/03 02:58:58;;;;;;;9.23;5.58;;;;;;;19.63;88.56;99753.37;1768765;79;21392;-61
2021/07/03 03:02:05;;;;;;;7.42;5.33;;;;;;;19.71;88.67;99752.97;1778210;80;21316;-63
2021/07/03 03:05:12;;;;;;;9.75;5.15;;;;;;;19.83;88.77;99759.28;1762603;80;21229;-63
2021/07/03 03:08:19;;;;;;;9.58;5.17;;;;;;;19.91;88.51;99761.65;1771380;79;21919;-63
2021/07/03 03:11:25;;;;;;;11.90;5.70;;;;;;;20.02;88.51;99759.34;1770071;79;21296;-63
2021/07/03 03:14:30;;;;;;;9.15;4.90;;;;;;;20.16;88.35;99766.28;1761568;80;21225;-64
2021/07/03 03:17:37;;;;;;;13.83;5.47;;;;;;;20.25;87.87;99751.70;1760197;79;21809;-61
2021/07/03 03:20:43;;;;;;;14.40;6.08;;;;;;;20.31;87.40;99772.09;1770726;81;21308;-60
2021/07/03 03:23:49;;;;;;;15.40;6.53;;;;;;;20.34;87.10;99763.25;1770976;79;21216;-61
2021/07/03 03:26:56;;;;;;;14.13;6.15;;;;;;;20.33;87.07;99774.05;1719307;83;21187;-60
2021/07/03 03:30:03;;;;;;;14.28;5.75;;;;;;;20.38;87.12;99768.58;1719368;83;21266;-60
2021/07/03 03:33:11;;;;;;;7.47;5.67;;;;;;;20.38;86.49;99769.44;1719798;82;21749;-61
2021/07/03 03:36:18;;;;;;;10.85;5.65;;;;;;;20.34;86.20;99768.81;1770697;80;21193;-61
2021/07/03 03:39:26;;;;;;;13.18;5.50;;;;;;;20.31;85.98;99770.14;1770405;79;21445;-60
2021/07/03 03:42:31;;;;;;;10.05;5.22;;;;;;;20.31;86.06;99755.42;1771152;79;21331;-63
2021/07/03 03:45:39;;;;;;;11.63;6.33;;;;;;;20.32;86.34;99764.05;1770894;79;21240;-60
2021/07/03 03:48:47;;;;;;;12.58;5.12;;;;;;;20.36;86.34;99756.89;1770512;79;21619;-60
2021/07/03 03:51:55;;;;;;;10.55;5.42;;;;;;;20.42;85.97;99762.83;1771788;80;21182;-60
2021/07/03 03:55:02;;;;;;;15.28;5.55;;;;;;;20.46;85.93;99762.59;1770965;81;21903;-61
2021/07/03 03:58:08;;;;;;;9.03;5.45;;;;;;;20.49;86.21;99762.93;1770655;79;21267;-63
2021/07/03 04:01:14;;;;;;;10.08;5.67;;;;;;;20.56;86.33;99769.70;1770613;80;21322;-63
2021/07/03 04:04:19;;;;;;;11.25;5.58;;;;;;;20.66;86.38;99762.34;1770436;79;21228;-63
2021/07/03 04:07:26;;;;;;;15.43;5.83;;;;;;;20.83;86.23;99763.14;1771447;81;21182;-64
2021/07/03 04:10:31;;;;;;;13.40;5.70;;;;;;;21.00;85.57;99761.73;1768510;80;21197;-63
2021/07/03 04:13:36;;;;;;;12.15;5.33;;;;;;;21.16;84.71;99778.94;1771522;79;21378;-61
2021/07/03 04:16:42;;;;;;;14.83;5.65;;;;;;;21.30;84.63;99769.08;1770921;80;21844;-58
2021/07/03 04:19:51;;;;;;;12.35;5.72;;;;;;;21.39;84.11;99761.94;1761351;80;21216;-61
2021/07/03 04:22:57;;;;;;;13.13;5.78;;;;;;;21.37;83.27;99766.09;1770675;79;21221;-61
2021/07/03 04:26:04;;;;;;;11.05;5.80;;;;;;;21.36;83.21;99756.89;1770230;81;21170;-64
2021/07/03 04:29:11;;;;;;;11.97;5.42;;;;;;;21.40;83.09;99755.28;1770274;79;21201;-62
2021/07/03 04:32:18;;;;;;;12.03;6.20;;;;;;;21.48;83.17;99753.43;1771266;80;21673;-62
2021/07/03 04:35:23;;;;;;;11.68;5.65;;;;;;;21.58;83.05;99753.52;1770394;80;21197;-62
2021/07/03 04:38:30;;;;;;;8.38;5.97;;;;;;;21.73;83.25;99750.91;1772154;80;21329;-62
2021/07/03 04:41:37;;;;;;;14.28;6.20;;;;;;;21.90;82.58;99747.47;1771949;81;21347;-62
2021/07/03 04:44:46;;;;;;;14.20;7.33;;;;;;;22.02;81.96;99745.34;1770014;79;21232;-62
2021/07/03 04:47:56;;;;;;;12.47;5.75;;;;;;;22.15;81.67;99741.29;1732714;81;21213;-61
2021/07/03 04:51:05;;;;;;;12.23;6.00;;;;;;;22.29;80.83;99740.27;1770250;80;21185;-64
2021/07/03 04:54:11;;;;;;;12.00;5.62;;;;;;;22.35;80.73;99744.77;1771234;79;21213;-62
2021/07/03 04:57:16;;;;;;;11.25;6.03;;;;;;;22.50;80.62;99750.47;1785098;79;21390;-62
2021/07/03 05:00:23;;;;;;;11.43;5.65;;;;;;;22.68;79.70;99754.23;1771395;80;21185;-61
2021/07/03 05:03:29;;;;;;;13.78;6.47;;;;;;;22.89;79.42;99759.69;1771634;79;21875;-62
2021/07/03 05:06:36;;;;;;;12.80;6.08;;;;;;;23.06;78.72;99770.09;1758215;80;21860;-62
2021/07/03 05:09:41;;;;;;;11.35;6.17;;;;;;;23.23;78.18;99767.11;1769814;79;21185;-63
2021/07/03 05:12:46;;;;;;;10.78;5.75;;;;;;;23.37;78.02;99771.11;1768180;80;21737;-63
2021/07/03 05:15:56;;;;;;;11.63;5.60;;;;;;;23.46;77.21;99779.23;1740216;82;21212;-64
2021/07/03 05:19:03;;;;;;;11.05;6.25;;;;;;;23.56;76.51;99779.27;1734037;81;21930;-63
2021/07/03 05:22:08;;;;;;;11.03;6.17;;;;;;;23.67;76.22;99787.13;1740569;82;21264;-63
2021/07/03 05:25:16;;;;;;;11.65;5.75;;;;;;;23.73;75.94;99781.82;1740305;82;21239;-63
2021/07/03 05:28:22;;;;;;;10.35;5.25;;;;;;;23.81;75.69;99791.91;1753198;80;21299;-62
2021/07/03 05:31:27;;;;;;;11.20;5.78;;;;;;;23.94;74.76;99805.38;1742000;81;21775;-63
2021/07/03 05:34:35;;;;;;;9.33;5.70;;;;;;;24.05;73.51;99825.83;1770865;79;21732;-63
2021/07/03 05:37:41;;;;;;;12.18;7.17;;;;;;;24.12;72.75;99827.23;1767737;79;21239;-63
2021/07/03 05:40:47;;;;;;;11.15;6.85;;;;;;;24.18;72.72;99844.30;1770429;81;21186;-64
2021/07/03 05:43:53;;;;;;;13.85;6.72;;;;;;;24.19;72.60;99843.74;1767275;81;21213;-64
2021/07/03 05:46:58;;;;;;;10.75;5.70;;;;;;;24.25;72.59;99847.67;1770603;80;21311;-63
2021/07/03 05:50:03;;;;;;;10.38;6.37;;;;;;;24.32;72.09;99846.01;1770089;80;21177;-63
2021/07/03 05:53:08;;;;;;;12.13;6.28;;;;;;;24.38;71.59;99837.89;1770762;79;21923;-64
2021/07/03 05:56:14;;;;;;;9.95;6.30;;;;;;;24.52;71.58;99845.45;1739777;82;21158;-63
2021/07/03 05:59:22;;;;;;;10.35;6.47;;;;;;;24.66;71.57;99846.61;1740152;81;21232;-64
2021/07/03 06:02:27;;;;;;;11.50;6.45;;;;;;;24.79;71.09;99833.98;1740049;81;21228;-64
2021/07/03 06:05:33;;;;;;;8.65;5.67;;;;;;;24.89;70.49;99825.59;1739967;82;21903;-64
2021/07/03 06:08:39;;;;;;;10.63;6.37;;;;;;;24.96;69.93;99815.77;1739939;81;21801;-64
2021/07/03 06:11:48;;;;;;;11.53;6.42;;;;;;;25.00;69.31;99804.84;1739929;82;21278;-64
2021/07/03 06:14:53;;;;;;;13.68;6.90;;;;;;;25.04;69.06;99787.73;1759211;80;21399;-63
2021/07/03 06:17:58;;;;;;;11.38;6.53;;;;;;;25.06;68.97;99789.69;1768810;79;21245;-64
2021/07/03 06:21:03;;;;;;;7.90;5.83;;;;;;;25.08;69.26;99795.27;1756237;81;21213;-65
2021/07/03 06:24:10;;;;;;;11.12;6.10;;;;;;;25.08;69.28;99795.85;1770527;79;22098;-64
2021/07/03 06:27:17;;;;;;;13.32;7.45;;;;;;;25.15;69.20;99796.95;1770067;81;21169;-64
2021/07/03 06:30:23;;;;;;;10.50;6.50;;;;;;;25.24;68.97;99792.44;1770793;81;21709;-65
2021/07/03 06:33:31;;;;;;;11.55;6.25;;;;;;;25.26;69.22;99784.59;1760307;80;21698;-65
2021/07/03 06:36:37;;;;;;;9.60;5.95;;;;;;;25.39;69.50;99783.98;1761477;81;21342;-65
2021/07/03 06:39:43;;;;;;;9.98;5.42;;;;;;;25.48;69.49;99793.49;1761681;81;21377;-63
2021/07/03 06:42:50;;;;;;;10.05;6.37;;;;;;;25.52;68.47;99803.84;1761677;81;21417;-64
2021/07/03 06:45:57;;;;;;;8.05;5.78;;;;;;;25.62;67.97;99793.98;1761747;81;21744;-64
2021/07/03 06:49:04;;;;;;;10.32;6.20;;;;;;;25.75;66.84;99793.33;1767076;81;21942;-65
2021/07/03 06:52:12;;;;;;;7.85;5.50;;;;;;;25.90;65.81;99800.83;1770862;81;21181;-63
2021/07/03 06:55:20;;;;;;;10.35;5.70;;;;;;;25.95;65.02;99806.41;1770984;80;21249;-64
2021/07/03 06:58:27;;;;;;;9.73;5.58;;;;;;;26.02;65.42;99816.79;1770816;79;21367;-64
2021/07/03 07:01:35;;;;;;;8.78;6.42;;;;;;;26.08;65.17;99821.23;1770826;80;21367;-64
2021/07/03 07:04:43;;;;;;;10.65;5.83;;;;;;;26.11;65.14;99823.45;1770716;79;21279;-63
2021/07/03 07:07:49;;;;;;;9.95;6.60;;;;;;;26.12;65.24;99829.33;1771027;79;21284;-64
2021/07/03 07:10:59;;;;;;;8.10;5.47;;;;;;;26.04;66.04;99832.75;1771098;80;21232;-63
2021/07/03 07:14:07;;;;;;;10.55;6.97;;;;;;;26.06;66.14;99834.70;1769601;79;21881;-63
2021/07/03 07:17:16;;;;;;;10.72;5.83;;;;;;;26.08;65.47;99831.91;1764242;81;21229;-63
2021/07/03 07:20:22;;;;;;;9.60;6.17;;;;;;;26.08;65.62;99826.29;1763141;81;21513;-63
2021/07/03 07:23:31;;;;;;;9.48;5.90;;;;;;;26.10;65.52;99828.22;1782349;80;21339;-63
2021/07/03 07:26:39;;;;;;;8.35;5.95;;;;;;;26.04;65.85;99822.38;1755237;81;21343;-62
2021/07/03 07:29:46;;;;;;;7.62;6.08;;;;;;;26.01;66.37;99821.55;1771822;81;21232;-63
2021/07/03 07:33:02;;;;;;;7.15;6.08;;;;;;;26.01;66.54;99818.75;1772439;79;21363;-65
2021/07/03 07:36:08;;;;;;;12.25;6.30;;;;;;;26.01;66.32;99812.28;1771575;80;21833;-65
2021/07/03 07:39:15;;;;;;;9.33;5.90;;;;;;;26.01;66.08;99809.48;1771544;80;21356;-65
2021/07/03 07:42:23;;;;;;;7.20;5.72;;;;;;;26.04;65.86;99804.13;1771401;80;21237;-65
2021/07/03 07:45:29;;;;;;;12.53;6.45;;;;;;;26.10;65.25;99805.77;1771020;80;21841;-64
2021/07/03 07:48:34;;;;;;;8.45;5.85;;;;;;;26.17;65.45;99812.46;1770866;80;21861;-65
2021/07/03 07:51:42;;;;;;;11.97;7.00;;;;;;;26.25;65.70;99814.09;1770158;81;21861;-64
2021/07/03 07:54:49;;;;;;;11.22;6.08;;;;;;;26.38;65.86;99815.40;1770834;80;21430;-64
2021/07/03 07:57:55;;;;;;;10.78;6.20;;;;;;;26.50;65.62;99824.27;1770414;81;21481;-64
2021/07/03 08:01:00;;;;;;;11.60;6.70;;;;;;;26.57;65.62;99832.36;1736088;81;21188;-63
2021/07/03 08:04:06;;;;;;;9.00;6.17;;;;;;;26.69;65.02;99834.28;1729819;82;21276;-64
2021/07/03 08:07:12;;;;;;;9.05;5.97;;;;;;;26.78;64.41;99843.17;1753855;79;21176;-63
2021/07/03 08:10:19;;;;;;;10.03;5.75;;;;;;;26.85;63.59;99841.40;1758716;81;21398;-64
2021/07/03 08:13:25;;;;;;;11.93;6.58;;;;;;;26.93;63.79;99840.20;1770665;80;21386;-64
2021/07/03 08:16:31;;;;;;;11.57;6.25;;;;;;;26.98;62.88;99838.75;1771565;79;21372;-64
2021/07/03 08:19:39;;;;;;;11.43;6.05;;;;;;;27.04;63.04;99838.12;1766785;79;21220;-64
2021/07/03 08:22:43;;;;;;;8.70;5.75;;;;;;;27.10;62.49;99838.36;1769007;80;21248;-63
2021/07/03 08:25:50;;;;;;;9.48;6.08;;;;;;;27.14;62.60;99831.84;1764415;81;21213;-64
2021/07/03 08:28:57;;;;;;;10.60;6.45;;;;;;;27.21;62.46;99827.28;1739248;81;21762;-64
2021/07/03 08:32:06;;;;;;;9.65;6.08;;;;;;;27.23;62.02;99821.62;1740173;82;21259;-64
2021/07/03 08:35:13;;;;;;;11.08;6.25;;;;;;;27.31;61.76;99818.74;1739866;82;21236;-64
2021/07/03 08:38:20;;;;;;;11.97;6.35;;;;;;;27.38;61.21;99806.02;1739839;81;21803;-63
2021/07/03 08:41:27;;;;;;;11.73;5.85;;;;;;;27.43;60.63;99804.53;1739670;82;21445;-64
2021/07/03 08:44:32;;;;;;;12.18;7.08;;;;;;;27.52;60.43;99812.59;1751416;81;21765;-64
2021/07/03 08:47:38;;;;;;;8.85;6.40;;;;;;;27.62;59.90;99801.19;1739663;81;21217;-64
2021/07/03 08:50:47;;;;;;;8.65;5.83;;;;;;;27.73;60.14;99804.13;1739999;82;21185;-65
2021/07/03 08:53:54;;;;;;;7.95;5.72;;;;;;;27.80;59.45;99798.98;1739867;81;21224;-65
2021/07/03 08:57:00;;;;;;;10.18;5.78;;;;;;;27.81;59.14;99795.02;1740203;82;21201;-64
2021/07/03 09:00:07;;;;;;;10.18;6.28;;;;;;;27.86;58.61;99793.55;1740639;82;21397;-64
2021/07/03 09:07:00;;;;;;;9.95;5.75;;;;;;;28.03;58.79;99794.47;1698416;79;21230;-58
2021/07/03 09:10:05;;;;;;;8.98;5.50;;;;;;;28.08;57.96;99794.96;1657594;84;21627;-58
2021/07/03 09:13:13;;;;;;;9.73;5.55;;;;;;;28.14;57.41;99802.19;1672366;86;21770;-59
2021/07/03 09:16:22;;;;;;;8.03;5.12;;;;;;;28.17;57.60;99795.94;1672995;86;21396;-59
2021/07/03 09:19:36;;;;;;;7.72;5.65;;;;;;;28.24;58.06;99790.77;1654457;85;21314;-59
2021/07/03 09:22:42;;;;;;;12.15;5.58;;;;;;;28.26;57.60;99796.34;1672739;86;21226;-58
2021/07/03 09:26:05;;;;;;;7.55;5.28;;;;;;;28.22;56.86;99798.68;1672790;86;21392;-58
2021/07/03 09:29:17;;;;;;;7.87;5.20;;;;;;;27.98;57.19;99793.70;1674935;84;21865;-58
2021/07/03 09:32:22;;;;;;;10.78;5.58;;;;;;;28.01;57.87;99791.12;1678698;84;21320;-58
2021/07/03 09:35:28;;;;;;;10.80;5.80;;;;;;;28.06;57.68;99786.82;1668732;84;21226;-58
2021/07/03 09:38:56;;;;;;;12.20;6.03;;;;;;;28.16;57.56;99778.80;1677900;83;21856;-59
2021/07/03 09:42:10;;;;;;;10.55;5.70;;;;;;;28.25;57.75;99782.02;1697159;83;21204;-60
2021/07/03 09:45:15;;;;;;;7.10;4.72;;;;;;;28.31;56.80;99782.75;1708218;82;21283;-59
2021/07/03 09:48:22;;;;;;;7.45;5.42;;;;;;;28.32;56.53;99781.63;1696231;82;21876;-58
2021/07/03 09:51:40;;;;;;;10.35;7.08;;;;;;;28.30;56.63;99784.76;1719768;81;21232;-59
2021/07/03 09:54:45;;;;;;;9.50;6.55;;;;;;;28.39;56.89;99787.13;1682273;82;21223;-59
2021/07/03 09:57:51;;;;;;;7.83;5.28;;;;;;;28.51;56.74;99776.84;1645099;87;21237;-57
2021/07/03 10:00:56;;;;;;;7.20;5.28;;;;;;;28.60;56.43;99783.42;1643979;85;21269;-57
2021/07/03 10:04:02;;;;;;;9.83;5.85;;;;;;;28.64;56.42;99774.05;1669511;84;21266;-58
2021/07/03 10:07:17;;;;;;;7.65;5.50;;;;;;;28.87;55.68;99766.59;1673309;81;21234;-58
2021/07/03 10:10:30;;;;;;;7.75;5.62;;;;;;;28.87;55.68;99766.59;1670855;85;22218;-58
2021/07/03 10:13:39;;;;;;;9.38;5.30;;;;;;;28.95;55.35;99768.69;1670989;85;21227;-57
2021/07/03 10:16:45;;;;;;;7.40;4.97;;;;;;;29.00;55.68;99767.19;1669314;86;22182;-56
2021/07/03 10:19:55;;;;;;;11.53;5.00;;;;;;;28.97;55.70;99768.62;1647808;85;21874;-59
2021/07/03 10:23:01;;;;;;;8.03;5.50;;;;;;;29.05;55.55;99767.91;1668181;86;22214;-58
2021/07/03 10:26:09;;;;;;;7.75;4.62;;;;;;;29.26;55.08;99756.27;1668718;86;21256;-56
2021/07/03 10:29:28;;;;;;;7.75;4.80;;;;;;;29.39;54.79;99760.48;1668446;86;21229;-56
2021/07/03 10:32:38;;;;;;;7.53;4.53;;;;;;;29.37;54.59;99747.27;1668925;86;21219;-57
2021/07/03 10:35:53;;;;;;;10.38;5.60;;;;;;;29.37;54.59;99747.27;1668663;86;21631;-57
2021/07/03 10:39:01;;;;;;;7.50;4.87;;;;;;;29.40;55.16;99755.09;1668113;86;21284;-58
2021/07/03 10:42:06;;;;;;;8.83;5.30;;;;;;;29.44;54.96;99746.28;1667860;86;21217;-59
2021/07/03 10:45:19;;;;;;;7.67;5.28;;;;;;;29.41;55.28;99741.84;1669910;86;21250;-57
2021/07/03 10:48:26;;;;;;;;;;;;;;;29.41;55.28;99741.84;1659004;86;21862;-58
2021/07/03 10:51:40;;;;;;;7.50;5.10;;;;;;;29.40;55.22;99739.58;1672105;85;20597;-58
2021/07/03 10:54:47;;;;;;;6.35;5.40;;;;;;;29.42;55.22;99733.62;1680912;83;21956;-57
2021/07/03 10:57:54;;;;;;;8.68;5.35;;;;;;;29.35;54.63;99735.48;1699480;84;21715;-57
2021/07/03 11:01:02;;;;;;;7.47;5.12;;;;;;;29.24;55.76;99729.77;1684110;84;21389;-56
2021/07/03 11:04:26;;;;;;;7.22;5.55;;;;;;;29.32;55.32;99730.44;1699781;83;21198;-57
2021/07/03 11:07:39;;;;;;;7.97;5.25;;;;;;;29.45;55.57;99731.61;1701073;81;21212;-58
2021/07/03 11:10:45;;;;;;;7.28;5.30;;;;;;;29.52;54.33;99720.15;1666008;85;21752;-58
2021/07/03 11:13:53;;;;;;;7.33;5.55;;;;;;;29.55;54.46;99711.61;1751954;81;21856;-57
2021/07/03 11:17:04;;;;;;;7.30;5.50;;;;;;;29.55;54.59;99706.81;1733934;80;21563;-56
2021/07/03 11:20:11;;;;;;;7.17;5.15;;;;;;;29.69;55.01;99709.06;1642042;86;21232;-56
2021/07/03 11:23:17;;;;;;;9.83;5.70;;;;;;;29.80;54.77;99698.36;1642607;87;21876;-57
2021/07/03 11:26:25;;;;;;;10.03;6.40;;;;;;;29.80;54.48;99694.97;1665267;85;21237;-57
2021/07/03 11:29:33;;;;;;;8.83;5.55;;;;;;;29.78;54.73;99692.22;1669958;86;21858;-57
2021/07/03 11:32:38;;;;;;;8.98;6.17;;;;;;;29.76;55.21;99691.13;1670483;86;21256;-57
2021/07/03 11:35:45;;;;;;;9.43;5.90;;;;;;;29.76;54.77;99688.87;1670452;86;21257;-56
2021/07/03 11:38:50;;;;;;;10.05;6.20;;;;;;;29.72;54.85;99683.02;1670069;86;21228;-56
2021/07/03 11:41:55;;;;;;;7.90;4.97;;;;;;;29.59;55.38;99683.86;1670416;86;21265;-57
2021/07/03 11:45:02;;;;;;;9.98;5.50;;;;;;;29.55;55.53;99689.89;1670470;86;21240;-57
2021/07/03 11:48:22;;;;;;;8.15;5.90;;;;;;;29.52;55.77;99693.34;1670520;86;21277;-58
2021/07/03 11:51:28;;;;;;;7.15;5.62;;;;;;;29.52;56.45;99696.73;1670465;86;21248;-58
2021/07/03 11:54:33;;;;;;;8.05;5.58;;;;;;;29.52;56.45;99696.73;1664622;86;21248;-57
2021/07/03 11:57:50;;;;;;;13.88;6.33;;;;;;;29.56;56.23;99692.95;1670041;86;21249;-57
2021/07/03 12:01:10;;;;;;;8.50;5.55;;;;;;;29.57;55.18;99696.63;1693044;84;21244;-57
2021/07/03 12:04:18;;;;;;;9.88;5.30;;;;;;;29.63;55.76;99691.11;1696004;84;21587;-57
2021/07/03 12:07:28;;;;;;;9.83;5.58;;;;;;;29.71;55.88;99695.47;1696238;84;21228;-57
2021/07/03 12:10:51;;;;;;;6.53;5.25;;;;;;;29.78;56.04;99689.39;1667146;82;21310;-57
2021/07/03 12:14:01;;;;;;;12.03;8.13;;;;;;;29.79;55.61;99682.02;1648103;86;21376;-57
2021/07/03 12:17:06;;;;;;;10.58;6.25;;;;;;;29.88;55.35;99680.09;1663951;85;21415;-57
2021/07/03 12:20:19;;;;;;;8.18;5.30;;;;;;;29.95;54.70;99676.27;1657932;85;21299;-58
2021/07/03 12:23:27;;;;;;;8.68;5.78;;;;;;;29.96;54.08;99679.33;1702604;83;21333;-58
2021/07/03 12:26:53;;;;;;;7.17;4.85;;;;;;;29.97;54.71;99671.11;1668331;83;21270;-57
2021/07/03 12:29:55;;;;;;;8.80;5.20;;;;;;;29.95;54.20;99667.80;1651986;85;21230;-57
2021/07/03 12:33:16;;;;;;;9.25;5.80;;;;;;;29.98;53.66;99667.72;1640844;87;21278;-57
2021/07/03 12:36:27;;;;;;;10.03;5.42;;;;;;;29.94;53.83;99654.81;1641294;87;21253;-58
2021/07/03 12:39:32;;;;;;;9.05;4.85;;;;;;;29.94;53.97;99654.00;1641549;87;21283;-57
2021/07/03 12:42:44;;;;;;;8.73;4.87;;;;;;;30.00;54.09;99647.88;1641529;87;21227;-57
2021/07/03 12:45:50;;;;;;;8.53;4.85;;;;;;;30.02;53.82;99644.73;1641564;87;21337;-57
2021/07/03 12:48:56;;;;;;;7.33;4.72;;;;;;;30.01;53.85;99641.09;1641445;87;21266;-57
2021/07/03 12:52:02;;;;;;;8.63;5.05;;;;;;;30.01;53.52;99641.09;1641337;87;21298;-56
2021/07/03 12:55:08;;;;;;;9.20;5.30;;;;;;;29.99;53.74;99637.75;1608918;87;21350;-56
2021/07/03 12:58:27;;;;;;;6.35;4.58;;;;;;;29.99;54.09;99624.20;1641102;87;21306;-57
2021/07/03 13:01:46;;;;;;;9.88;4.97;;;;;;;30.00;53.84;99616.82;1640988;87;21322;-57
2021/07/03 13:04:54;;;;;;;9.30;5.00;;;;;;;30.01;53.65;99617.09;1640811;87;21309;-57
2021/07/03 13:08:00;;;;;;;6.67;5.03;;;;;;;30.06;53.28;99616.97;1641090;87;21787;-57
2021/07/03 13:11:07;;;;;;;9.50;5.17;;;;;;;30.10;53.38;99629.27;1641761;84;21261;-57
2021/07/03 13:14:12;;;;;;;8.80;4.75;;;;;;;30.17;54.02;99622.61;1641616;86;21230;-58
2021/07/03 13:17:17;;;;;;;6.35;4.92;;;;;;;30.30;53.48;99632.18;1655876;84;21236;-59
2021/07/03 13:20:23;;;;;;;7.10;4.97;;;;;;;30.47;53.34;99632.27;1673379;84;21359;-58
2021/07/03 13:23:32;;;;;;;9.10;4.58;;;;;;;30.51;52.20;99631.86;1745035;82;21326;-57
2021/07/03 13:26:38;;;;;;;5.75;4.10;;;;;;;30.59;52.10;99629.08;1744656;81;21274;-57
2021/07/03 13:29:45;;;;;;;5.87;4.40;;;;;;;30.67;51.35;99621.80;1684035;85;21922;-59
2021/07/03 13:32:52;;;;;;;6.97;4.47;;;;;;;30.66;50.78;99621.55;1744309;82;21246;-59
2021/07/03 13:35:59;;;;;;;7.00;4.20;;;;;;;30.65;50.27;99629.19;1744812;81;21212;-57
2021/07/03 13:39:04;;;;;;;6.45;4.30;;;;;;;30.65;50.64;99625.55;1683670;85;21835;-57
2021/07/03 13:42:09;;;;;;;8.93;4.33;;;;;;;30.58;50.11;99627.43;1744224;82;21855;-57
2021/07/03 13:45:16;;;;;;;6.75;3.70;;;;;;;30.50;50.57;99636.70;1655537;85;21220;-57
2021/07/03 13:48:21;;;;;;;6.72;3.90;;;;;;;30.45;50.87;99640.23;1643330;86;21274;-58
2021/07/03 13:51:28;;;;;;;8.38;3.90;;;;;;;30.46;50.88;99635.66;1643492;87;21370;-57
2021/07/03 13:54:33;;;;;;;7.62;4.72;;;;;;;30.50;50.87;99649.98;1643089;87;21230;-57
2021/07/03 13:57:40;;;;;;;7.17;4.03;;;;;;;30.52;50.27;99654.73;1641342;87;21234;-57
2021/07/03 14:00:45;;;;;;;12.58;4.80;;;;;;;30.52;50.38;99663.22;1641213;87;21238;-57
2021/07/03 14:03:51;;;;;;;7.50;4.03;;;;;;;30.53;50.55;99673.34;1641244;87;21286;-57
2021/07/03 14:07:00;;;;;;;8.03;3.77;;;;;;;30.50;49.62;99668.34;1659560;86;21203;-57
2021/07/03 14:10:06;;;;;;;5.47;4.05;;;;;;;30.38;50.09;99673.17;1656706;86;21322;-57
2021/07/03 14:13:12;;;;;;;5.08;3.72;;;;;;;30.39;50.30;99676.27;1641384;83;21345;-56
2021/07/03 14:16:19;;;;;;;7.10;3.98;;;;;;;30.45;50.04;99691.92;1641923;87;21242;-58
2021/07/03 14:19:27;;;;;;;7.30;3.45;;;;;;;30.50;48.98;99688.97;1651802;86;21264;-58
2021/07/03 14:22:35;;;;;;;7.10;3.40;;;;;;;30.46;47.48;99687.93;1666059;83;21400;-59
2021/07/03 14:25:44;;;;;;;10.60;3.52;;;;;;;30.46;47.58;99675.22;1667716;86;21302;-58
2021/07/03 14:28:50;;;;;;;7.15;3.10;;;;;;;30.49;48.00;99670.92;1668081;86;21423;-59
2021/07/03 14:31:56;;;;;;;6.05;3.90;;;;;;;30.50;47.09;99666.36;1657975;84;21859;-58
2021/07/03 14:35:01;;;;;;;7.70;3.22;;;;;;;30.56;47.65;99666.47;1641812;85;21779;-58
2021/07/03 14:38:07;;;;;;;5.15;3.60;;;;;;;30.68;47.82;99663.05;1663917;85;21221;-58
2021/07/03 14:41:14;;;;;;;4.87;3.67;;;;;;;30.77;47.64;99664.52;1668417;85;21211;-58